Time;durP1;ratioP1;P1;durP2;ratioP2;P2;SDS_P1;SDS_P2;PMS_P1;PMS_P2;Temp;Humidity;BMP_temperature;BMP_pressure;BME280_temperature;BME280_humidity;BME280_pressure;Samples;Min_cycle;Max_cycle;Signal;HPM_P1;HPM_P2
2022/10/21 00:02:51;;;;;;;2.88;1.60;;;;;;;11.72;100.00;98167.59;15278969;19;20021;-57
2022/10/21 00:08:17;;;;;;;1.73;1.30;;;;;;;11.72;100.00;98168.41;15283109;19;20472;-58
2022/10/21 00:13:43;;;;;;;2.50;1.40;;;;;;;11.71;100.00;98165.91;15278319;19;20029;-54
2022/10/21 00:19:17;;;;;;;2.22;1.30;;;;;;;11.75;100.00;98159.16;15268844;19;20061;-58
2022/10/21 00:24:42;;;;;;;2.00;1.65;;;;;;;11.81;100.00;98149.50;15280622;19;20022;-57
2022/10/21 00:30:07;;;;;;;2.08;1.52;;;;;;;11.78;100.00;98141.75;15282970;19;20018;-59
2022/10/21 00:35:37;;;;;;;1.98;1.48;;;;;;;11.76;100.00;98132.97;15282912;19;20018;-60
2022/10/21 00:41:02;;;;;;;2.33;1.50;;;;;;;11.76;100.00;98116.78;15277670;19;20357;-59
2022/10/21 00:46:38;;;;;;;4.72;1.80;;;;;;;11.78;100.00;98117.47;15280401;19;20021;-59
2022/10/21 00:52:08;;;;;;;3.60;1.80;;;;;;;11.80;100.00;98100.06;15271864;19;20019;-58
2022/10/21 00:57:36;;;;;;;2.75;1.60;;;;;;;11.82;100.00;98092.63;15273178;19;20432;-57
2022/10/21 01:03:00;;;;;;;1.88;1.67;;;;;;;11.90;100.00;98089.06;15273647;19;20046;-58
2022/10/21 01:08:29;;;;;;;1.75;1.60;;;;;;;11.93;100.00;98083.31;15273608;19;20366;-56
2022/10/21 01:14:13;;;;;;;1.88;1.60;;;;;;;11.98;100.00;98096.28;15274812;19;20377;-59
2022/10/21 01:20:19;;;;;;;1.60;1.50;;;;;;;11.96;100.00;98082.94;15271434;19;20022;-53
2022/10/21 01:26:09;;;;;;;1.85;1.70;;;;;;;11.96;100.00;98088.31;15270695;19;20262;-53
2022/10/21 01:31:42;;;;;;;3.88;1.80;;;;;;;11.96;100.00;98096.41;15277978;19;20027;-54
2022/10/21 01:37:14;;;;;;;3.58;1.73;;;;;;;11.96;100.00;98101.81;15277850;19;20018;-57
2022/10/21 01:42:45;;;;;;;5.07;1.73;;;;;;;11.93;100.00;98104.03;15270541;19;20018;-61
2022/10/21 01:48:19;;;;;;;2.43;1.80;;;;;;;11.92;100.00;98108.63;15266429;19;20006;-58
2022/10/21 01:53:49;;;;;;;2.60;2.00;;;;;;;11.93;100.00;98109.44;15270635;19;20933;-57
2022/10/21 01:59:16;;;;;;;5.13;1.90;;;;;;;11.90;100.00;98094.44;15266336;19;20010;-59
2022/10/21 02:04:45;;;;;;;2.85;1.75;;;;;;;11.87;100.00;98086.69;15273522;19;20018;-60
2022/10/21 02:10:11;;;;;;;3.72;1.80;;;;;;;11.80;100.00;98078.47;15269269;19;20014;-61
2022/10/21 02:15:37;;;;;;;3.28;1.92;;;;;;;11.84;100.00;98074.41;15274817;19;20082;-60
2022/10/21 02:21:09;;;;;;;3.33;1.92;;;;;;;11.80;100.00;98061.44;15270906;19;20034;-60
2022/10/21 02:26:35;;;;;;;2.22;1.42;;;;;;;11.76;100.00;98060.94;15274423;19;20015;-58
2022/10/21 02:32:11;;;;;;;3.67;2.10;;;;;;;11.72;100.00;98043.44;15269004;19;20054;-58
2022/10/21 02:37:41;;;;;;;2.83;1.75;;;;;;;11.66;100.00;98034.19;15266356;19;20018;-57
2022/10/21 02:43:10;;;;;;;2.55;1.80;;;;;;;11.63;100.00;98020.22;15271207;19;20022;-59
2022/10/21 02:48:35;;;;;;;2.47;1.70;;;;;;;11.59;100.00;98027.00;15264347;19;20006;-58
2022/10/21 02:54:03;;;;;;;2.72;2.08;;;;;;;11.53;100.00;98033.94;15268388;19;20030;-60
2022/10/21 02:59:26;;;;;;;3.58;2.05;;;;;;;11.47;100.00;98029.22;15261665;19;20018;-59
2022/10/21 03:04:51;;;;;;;2.45;1.92;;;;;;;11.39;100.00;98038.22;15267905;19;20023;-57
2022/10/21 03:10:18;;;;;;;4.13;1.83;;;;;;;11.36;100.00;98033.19;15268565;19;20014;-60
2022/10/21 03:15:49;;;;;;;2.63;1.90;;;;;;;11.32;100.00;98030.00;15270609;19;20019;-61
2022/10/21 03:21:14;;;;;;;4.67;1.83;;;;;;;11.24;100.00;98036.28;15264356;19;20015;-57
2022/10/21 03:26:41;;;;;;;2.35;1.80;;;;;;;11.19;100.00;98040.50;15272543;19;20022;-60
2022/10/21 03:32:06;;;;;;;2.88;2.00;;;;;;;11.07;100.00;98024.72;15272457;19;20023;-60
2022/10/21 03:37:30;;;;;;;2.97;2.00;;;;;;;11.01;100.00;98008.41;15273068;19;20015;-60
2022/10/21 03:42:58;;;;;;;3.70;2.10;;;;;;;10.87;100.00;98009.97;15263125;19;20018;-57
2022/10/21 03:48:22;;;;;;;3.97;2.13;;;;;;;10.81;100.00;97981.00;15269895;19;20023;-59
2022/10/21 03:53:47;;;;;;;2.47;2.10;;;;;;;10.71;100.00;97976.66;15278138;19;20025;-58
2022/10/21 03:59:14;;;;;;;3.08;2.13;;;;;;;10.68;100.00;97981.56;15274588;19;20014;-60
2022/10/21 04:04:39;;;;;;;4.80;2.20;;;;;;;10.67;100.00;97979.88;15278623;19;20017;-59
2022/10/21 04:10:04;;;;;;;3.70;1.85;;;;;;;10.61;100.00;97962.56;15278085;19;20019;-59
2022/10/21 04:15:31;;;;;;;3.67;2.03;;;;;;;10.57;100.00;97969.28;15280702;19;20022;-60
2022/10/21 04:20:55;;;;;;;5.25;2.38;;;;;;;10.54;100.00;97983.09;15272467;19;20029;-59
2022/10/21 04:26:20;;;;;;;3.30;2.40;;;;;;;10.58;100.00;97965.59;15280169;19;20022;-60
2022/10/21 04:31:47;;;;;;;2.80;2.20;;;;;;;10.63;100.00;97963.22;15274161;19;20027;-60
2022/10/21 04:37:39;;;;;;;4.55;2.10;;;;;;;10.62;100.00;97961.53;15276109;19;20030;-59
2022/10/21 04:43:05;;;;;;;2.75;2.10;;;;;;;10.51;100.00;97967.28;15278855;19;20038;-61
2022/10/21 04:48:32;;;;;;;3.33;2.22;;;;;;;10.42;100.00;97966.47;15277797;19;20029;-60
2022/10/21 04:53:57;;;;;;;3.78;2.38;;;;;;;10.38;100.00;97976.75;15279068;19;20022;-59
2022/10/21 04:59:22;;;;;;;2.45;2.10;;;;;;;10.32;100.00;97967.47;15274376;19;20629;-61
2022/10/21 05:04:50;;;;;;;3.03;2.58;;;;;;;10.27;100.00;97985.16;15277638;19;20022;-60
2022/10/21 05:10:16;;;;;;;5.22;2.50;;;;;;;10.22;100.00;97977.59;15267769;19;20022;-60
2022/10/21 05:15:40;;;;;;;3.17;2.50;;;;;;;10.20;100.00;97968.84;15276770;19;20025;-60
2022/10/21 05:21:07;;;;;;;4.82;2.75;;;;;;;10.26;100.00;97953.84;15276628;19;20365;-58
2022/10/21 05:26:32;;;;;;;4.97;2.40;;;;;;;10.26;100.00;97956.53;15277136;19;20042;-60
2022/10/21 05:31:57;;;;;;;5.50;2.72;;;;;;;10.30;100.00;97947.94;15274155;19;20022;-60
2022/10/21 05:37:24;;;;;;;2.95;2.65;;;;;;;10.35;100.00;97936.66;15275708;19;20014;-61
2022/10/21 05:42:48;;;;;;;3.90;2.58;;;;;;;10.34;100.00;97932.28;15272487;19;20022;-59
2022/10/21 05:48:13;;;;;;;4.68;2.83;;;;;;;10.30;100.00;97915.63;15269603;19;20018;-59
2022/10/21 05:53:41;;;;;;;5.50;2.60;;;;;;;10.26;100.00;97913.47;15270592;19;20018;-58
2022/10/21 05:59:06;;;;;;;4.55;2.80;;;;;;;10.18;100.00;97912.44;15268390;19;20030;-61
2022/10/21 06:04:30;;;;;;;4.80;2.70;;;;;;;10.09;100.00;97905.41;15271414;19;20025;-59
2022/10/21 06:09:58;;;;;;;3.15;2.80;;;;;;;10.02;100.00;97920.56;15269228;19;20018;-59
2022/10/21 06:15:23;;;;;;;4.18;3.00;;;;;;;9.95;100.00;97911.47;15265405;19;20030;-59
2022/10/21 06:20:54;;;;;;;3.67;2.80;;;;;;;9.87;100.00;97913.19;15261021;19;20025;-61
2022/10/21 06:26:21;;;;;;;5.20;2.97;;;;;;;9.83;100.00;97905.63;15273983;19;20018;-61
2022/10/21 06:31:49;;;;;;;3.60;2.80;;;;;;;9.79;100.00;97899.75;15271277;19;20018;-60
2022/10/21 06:37:14;;;;;;;4.40;3.17;;;;;;;9.77;100.00;97882.06;15273797;19;20024;-57
2022/10/21 06:42:41;;;;;;;3.83;3.22;;;;;;;9.75;100.00;97895.69;15272126;19;20030;-60
2022/10/21 06:48:07;;;;;;;4.93;3.00;;;;;;;9.78;100.00;97910.66;15258373;19;20031;-58
2022/10/21 06:53:31;;;;;;;5.30;3.20;;;;;;;9.86;100.00;97899.91;15264534;19;20014;-62
2022/10/21 06:59:00;;;;;;;3.45;2.80;;;;;;;10.02;100.00;97899.88;15271984;19;20033;-62
2022/10/21 07:04:25;;;;;;;4.95;2.92;;;;;;;10.12;100.00;97894.31;15270332;19;20358;-62
2022/10/21 07:09:49;;;;;;;4.30;2.75;;;;;;;10.27;100.00;97909.75;15267061;19;20074;-61
2022/10/21 07:15:18;;;;;;;4.85;2.80;;;;;;;10.39;100.00;97912.94;15270327;19;20014;-61
2022/10/21 07:20:49;;;;;;;6.63;2.92;;;;;;;10.53;100.00;97908.69;15258832;19;20014;-60
2022/10/21 07:26:14;;;;;;;6.70;3.10;;;;;;;10.61;100.00;97895.22;15284936;19;20018;-58
2022/10/21 07:31:44;;;;;;;5.38;3.17;;;;;;;10.68;100.00;97901.56;15283131;19;20026;-60
2022/10/21 07:37:08;;;;;;;3.72;2.78;;;;;;;10.77;100.00;97905.91;15286129;19;20022;-59
2022/10/21 07:42:33;;;;;;;4.20;2.60;;;;;;;10.86;100.00;97897.78;15278832;19;20018;-61
2022/10/21 07:48:00;;;;;;;5.28;3.03;;;;;;;10.96;100.00;97893.03;15282117;19;20018;-60
2022/10/21 07:53:25;;;;;;;4.20;2.70;;;;;;;11.08;100.00;97888.91;15278168;19;20019;-61
2022/10/21 07:58:45;;;;;;;3.47;2.58;;;;;;;11.26;100.00;97893.16;15269654;19;20031;-60
2022/10/21 08:04:16;;;;;;;5.75;2.90;;;;;;;11.43;100.00;97888.50;15278825;19;20023;-60
2022/10/21 08:09:41;;;;;;;6.17;2.90;;;;;;;11.62;100.00;97887.16;15279541;19;20018;-59
2022/10/21 08:15:06;;;;;;;3.97;2.70;;;;;;;11.84;100.00;97898.13;15283048;19;20051;-59
2022/10/21 08:20:42;;;;;;;4.53;2.60;;;;;;;12.01;100.00;97894.28;15275326;19;20017;-61
2022/10/21 08:26:09;;;;;;;3.75;2.80;;;;;;;12.24;100.00;97896.09;15276331;19;20492;-60
2022/10/21 08:31:36;;;;;;;4.55;2.60;;;;;;;12.37;100.00;97894.59;15271581;19;20022;-57
2022/10/21 08:37:03;;;;;;;4.45;2.80;;;;;;;12.57;100.00;97890.31;15276865;19;20548;-61
2022/10/21 08:42:29;;;;;;;3.67;2.50;;;;;;;12.70;100.00;97883.41;15273409;19;20414;-57
2022/10/21 08:47:58;;;;;;;5.35;2.42;;;;;;;12.86;100.00;97885.91;15281454;19;20022;-56
2022/10/21 08:53:31;;;;;;;2.53;2.20;;;;;;;13.01;100.00;97885.00;15275017;19;20019;-60
2022/10/21 08:58:56;;;;;;;3.90;2.47;;;;;;;13.17;100.00;97887.50;15271684;19;20709;-59
2022/10/21 09:04:31;;;;;;;4.63;2.40;;;;;;;13.32;100.00;97892.03;15278208;19;20018;-59
2022/10/21 09:10:03;;;;;;;2.70;2.22;;;;;;;13.44;100.00;97882.41;15275237;19;20019;-59
2022/10/21 09:15:33;;;;;;;5.22;2.70;;;;;;;13.55;100.00;97883.75;15281183;19;20019;-60
2022/10/21 09:21:13;;;;;;;4.63;2.63;;;;;;;13.62;100.00;97870.28;15275441;19;20014;-59
2022/10/21 09:26:41;;;;;;;3.67;2.20;;;;;;;13.74;100.00;97884.13;15277187;19;20014;-58
2022/10/21 09:32:18;;;;;;;3.78;2.40;;;;;;;13.83;100.00;97883.78;15274213;19;20078;-60
2022/10/21 09:37:47;;;;;;;4.80;2.30;;;;;;;13.91;100.00;97880.09;15277110;19;20026;-59
2022/10/21 09:43:22;;;;;;;4.45;2.40;;;;;;;14.03;100.00;97875.00;15276913;19;20012;-59
2022/10/21 09:48:48;;;;;;;4.20;2.30;;;;;;;14.12;100.00;97881.06;15273724;19;20542;-56
2022/10/21 09:54:36;;;;;;;6.93;2.47;;;;;;;14.23;100.00;97894.06;15274724;19;20007;-56
2022/10/21 10:00:03;;;;;;;4.00;2.40;;;;;;;14.31;100.00;97890.38;15266281;19;20018;-60
2022/10/21 10:05:47;;;;;;;4.33;2.00;;;;;;;14.40;100.00;97885.66;15275534;19;20082;-57
2022/10/21 10:11:20;;;;;;;7.07;2.40;;;;;;;14.50;100.00;97894.25;15273636;19;20244;-60
2022/10/21 10:16:48;;;;;;;5.45;2.20;;;;;;;14.63;100.00;97894.34;15273551;19;20015;-61
2022/10/21 10:22:15;;;;;;;5.53;2.30;;;;;;;14.80;100.00;97894.03;15276888;19;20456;-61
2022/10/21 10:27:40;;;;;;;7.20;2.00;;;;;;;14.95;100.00;97883.03;15273197;19;20037;-61
2022/10/21 10:33:15;;;;;;;4.72;2.08;;;;;;;15.09;100.00;97881.19;15265928;19;20025;-59
2022/10/21 10:38:43;;;;;;;3.45;2.05;;;;;;;15.24;100.00;97872.88;15268578;19;20025;-58
2022/10/21 10:44:20;;;;;;;5.43;2.10;;;;;;;15.36;100.00;97870.41;15274358;19;20025;-60
2022/10/21 10:49:49;;;;;;;5.82;2.05;;;;;;;15.44;100.00;97862.06;15272302;19;20033;-56
2022/10/21 10:55:20;;;;;;;4.82;1.80;;;;;;;15.54;100.00;97853.53;15272799;19;20421;-57
2022/10/21 11:00:51;;;;;;;5.10;2.00;;;;;;;15.61;100.00;97857.09;15280025;19;20304;-59
2022/10/21 11:06:20;;;;;;;4.82;2.10;;;;;;;15.70;100.00;97855.00;15281516;19;20015;-58
2022/10/21 11:11:46;;;;;;;5.80;2.03;;;;;;;15.75;100.00;97846.22;15278532;19;20026;-60
2022/10/21 11:17:13;;;;;;;4.15;2.20;;;;;;;15.78;100.00;97853.97;15285358;19;20024;-60
2022/10/21 11:22:50;;;;;;;4.90;2.25;;;;;;;15.75;100.00;97841.66;15278160;19;20038;-57
2022/10/21 11:28:27;;;;;;;5.22;2.10;;;;;;;15.74;100.00;97860.84;15284782;19;20015;-57
2022/10/21 11:34:02;;;;;;;5.30;2.30;;;;;;;15.70;100.00;97858.53;15278498;19;20022;-56
2022/10/21 11:39:54;;;;;;;6.70;2.40;;;;;;;15.59;100.00;97874.63;15277118;19;20018;-58
2022/10/21 11:45:46;;;;;;;4.65;2.45;;;;;;;15.50;100.00;97868.56;15282130;19;20014;-58
2022/10/21 11:51:22;;;;;;;4.20;2.40;;;;;;;15.43;100.00;97859.59;15286585;19;20018;-59
2022/10/21 11:56:58;;;;;;;4.22;2.38;;;;;;;15.37;100.00;97861.25;15282109;19;20039;-59
2022/10/21 12:02:26;;;;;;;5.97;2.40;;;;;;;15.23;100.00;97860.34;15278960;19;20014;-58
2022/10/21 12:08:10;;;;;;;4.45;2.60;;;;;;;15.22;100.00;97847.84;15280371;19;20024;-58
2022/10/21 12:13:43;;;;;;;4.70;2.40;;;;;;;15.06;100.00;97860.75;15272349;19;20014;-58
2022/10/21 12:19:21;;;;;;;4.75;2.33;;;;;;;15.00;100.00;97860.72;15277373;19;20033;-60
2022/10/21 12:24:53;;;;;;;7.32;2.80;;;;;;;14.90;100.00;97880.94;15276635;19;20009;-57
2022/10/21 12:30:27;;;;;;;8.70;3.22;;;;;;;14.86;100.00;97908.66;15273555;19;20014;-58
2022/10/21 12:35:53;;;;;;;4.57;2.65;;;;;;;14.91;100.00;97911.59;15279571;19;20021;-59
2022/10/21 12:41:48;;;;;;;4.30;2.40;;;;;;;14.96;100.00;97892.84;15275428;19;20011;-57
2022/10/21 12:47:30;;;;;;;4.82;2.50;;;;;;;15.00;100.00;97894.09;15271473;19;20026;-60
2022/10/21 12:53:04;;;;;;;5.90;2.50;;;;;;;15.02;100.00;97889.31;15273029;19;20021;-58
2022/10/21 12:58:36;;;;;;;6.38;2.45;;;;;;;15.08;100.00;97884.94;15282826;19;20010;-54
2022/10/21 13:04:05;;;;;;;6.43;2.40;;;;;;;15.10;100.00;97896.44;15280858;19;20014;-59
2022/10/21 13:09:40;;;;;;;4.30;2.20;;;;;;;15.16;100.00;97886.66;15273473;19;20014;-59
2022/10/21 13:15:07;;;;;;;3.35;2.20;;;;;;;15.18;100.00;97893.53;15276364;19;20021;-57
2022/10/21 13:21:05;;;;;;;4.57;2.30;;;;;;;15.21;100.00;97884.19;15272642;19;20045;-61
2022/10/21 13:26:30;;;;;;;4.68;1.63;;;;;;;15.21;100.00;97895.03;15276874;19;20034;-57
2022/10/21 13:31:54;;;;;;;3.13;1.38;;;;;;;15.16;100.00;97886.66;15268260;19;20022;-57
2022/10/21 13:37:27;;;;;;;2.08;1.15;;;;;;;15.14;100.00;97877.88;15278052;19;20018;-58
2022/10/21 13:42:58;;;;;;;2.58;0.95;;;;;;;15.09;100.00;97879.34;15269809;19;20074;-56
2022/10/21 13:48:26;;;;;;;2.50;1.00;;;;;;;15.09;100.00;97873.91;15272427;19;20445;-55
2022/10/21 13:53:54;;;;;;;1.23;0.90;;;;;;;15.09;100.00;97868.50;15273585;19;20366;-57
2022/10/21 13:59:27;;;;;;;1.58;0.90;;;;;;;15.05;100.00;97872.63;15266484;19;20492;-57
2022/10/21 14:04:52;;;;;;;0.85;0.75;;;;;;;15.09;100.00;97857.63;15268635;19;20026;-57
2022/10/21 14:10:19;;;;;;;0.95;0.90;;;;;;;15.15;100.00;97863.25;15267809;19;20480;-56
2022/10/21 14:15:50;;;;;;;1.35;0.90;;;;;;;15.19;100.00;97868.06;15271160;19;20402;-57
2022/10/21 14:21:27;;;;;;;1.00;0.90;;;;;;;15.18;100.00;97881.84;15265617;19;20541;-58
2022/10/21 14:26:55;;;;;;;1.30;1.10;;;;;;;15.15;100.00;97890.41;15272571;19;20073;-58
2022/10/21 14:32:22;;;;;;;1.73;1.00;;;;;;;15.08;100.00;97884.94;15263327;19;20481;-58
2022/10/21 14:37:53;;;;;;;1.00;0.90;;;;;;;15.01;100.00;97884.94;15272639;19;20022;-58
2022/10/21 14:43:34;;;;;;;1.30;0.88;;;;;;;14.95;100.00;97892.00;15264749;19;20021;-56
2022/10/21 14:49:03;;;;;;;0.75;0.65;;;;;;;14.85;100.00;97886.13;15265646;19;20014;-57
2022/10/21 14:54:35;;;;;;;1.63;0.52;;;;;;;14.76;100.00;97866.47;15268197;19;20025;-55
2022/10/21 15:00:04;;;;;;;1.85;0.40;;;;;;;14.71;100.00;97882.53;15263761;19;20030;-58
2022/10/21 15:05:36;;;;;;;0.43;0.43;;;;;;;14.59;100.00;97893.03;15270592;19;20014;-56
2022/10/21 15:11:27;;;;;;;0.68;0.60;;;;;;;14.58;100.00;97895.97;15266707;19;20085;-58
2022/10/21 15:17:04;;;;;;;0.45;0.30;;;;;;;14.55;100.00;97908.06;15245832;19;20027;-53
2022/10/21 15:22:32;;;;;;;0.60;0.38;;;;;;;14.49;100.00;97906.97;15265140;19;20037;-58
2022/10/21 15:27:58;;;;;;;1.23;0.50;;;;;;;14.47;100.00;97911.75;15267961;19;20569;-55
2022/10/21 15:33:26;;;;;;;0.95;0.40;;;;;;;14.42;100.00;97919.63;15267978;19;20037;-56
2022/10/21 15:38:51;;;;;;;0.45;0.40;;;;;;;14.38;100.00;97918.38;15267550;19;20019;-59
2022/10/21 15:44:20;;;;;;;2.15;0.38;;;;;;;14.32;100.00;97932.69;15278446;19;20022;-58
2022/10/21 15:49:48;;;;;;;1.10;0.35;;;;;;;14.27;100.00;97932.47;15273667;19;20369;-57
2022/10/21 15:55:13;;;;;;;2.22;0.30;;;;;;;14.26;100.00;97933.50;15273259;19;20014;-57
2022/10/21 16:00:37;;;;;;;0.30;0.30;;;;;;;14.26;100.00;97944.34;15270551;19;20021;-59
2022/10/21 16:06:04;;;;;;;0.80;0.43;;;;;;;14.22;100.00;97956.59;15282107;19;20022;-57
2022/10/21 16:11:29;;;;;;;1.17;0.50;;;;;;;14.21;100.00;97969.31;15285567;19;20576;-57
2022/10/21 16:17:04;;;;;;;1.23;1.00;;;;;;;14.21;100.00;97966.59;15280725;19;20022;-57
2022/10/21 16:22:32;;;;;;;0.73;0.68;;;;;;;14.17;100.00;97968.84;15275970;19;20031;-57
2022/10/21 16:27:56;;;;;;;2.08;0.70;;;;;;;14.16;100.00;97958.22;15276089;19;20014;-57
2022/10/21 16:33:22;;;;;;;0.73;0.73;;;;;;;14.13;100.00;97958.59;15275707;19;20034;-59
2022/10/21 16:38:50;;;;;;;1.15;0.60;;;;;;;14.10;100.00;97946.28;15275099;19;20018;-58
2022/10/21 16:44:15;;;;;;;0.60;0.60;;;;;;;14.08;100.00;97956.47;15277974;19;20014;-56
2022/10/21 16:49:40;;;;;;;2.42;0.70;;;;;;;14.06;100.00;97955.84;15276902;19;20011;-58
2022/10/21 16:55:07;;;;;;;2.17;0.80;;;;;;;14.09;100.00;97957.34;15272017;19;20011;-58
2022/10/21 17:00:33;;;;;;;0.65;0.52;;;;;;;14.05;100.00;97961.47;15268359;19;20028;-60
2022/10/21 17:05:57;;;;;;;0.68;0.57;;;;;;;14.06;100.00;97957.72;15278133;19;20014;-60
2022/10/21 17:11:26;;;;;;;0.70;0.70;;;;;;;13.97;100.00;97966.00;15276271;19;20014;-60
2022/10/21 17:16:51;;;;;;;1.23;0.70;;;;;;;13.96;100.00;97979.72;15276019;19;20018;-61
2022/10/21 17:22:17;;;;;;;2.20;0.73;;;;;;;13.91;100.00;97979.47;15277435;19;20023;-60
2022/10/21 17:27:44;;;;;;;0.70;0.60;;;;;;;13.84;100.00;97972.09;15276252;19;20019;-60
2022/10/21 17:33:09;;;;;;;1.20;0.70;;;;;;;13.80;100.00;97968.13;15273004;19;20014;-60
2022/10/21 17:38:33;;;;;;;0.75;0.60;;;;;;;13.78;100.00;97981.00;15275696;19;20440;-58
2022/10/21 17:44:01;;;;;;;0.80;0.63;;;;;;;13.73;100.00;97972.63;15276590;19;20033;-59
2022/10/21 17:49:26;;;;;;;1.27;0.80;;;;;;;13.70;100.00;97978.44;15272853;19;20019;-59
2022/10/21 17:54:50;;;;;;;0.63;0.63;;;;;;;13.67;100.00;97995.88;15270983;19;20025;-60
2022/10/21 18:00:19;;;;;;;1.55;0.70;;;;;;;13.65;100.00;97989.81;15271715;19;20021;-59
2022/10/21 18:05:44;;;;;;;0.90;0.70;;;;;;;13.66;100.00;97980.66;15267030;19;20691;-59
2022/10/21 18:11:09;;;;;;;1.85;0.80;;;;;;;13.66;100.00;97974.44;15273267;19;20691;-58
2022/10/21 18:16:36;;;;;;;0.75;0.75;;;;;;;13.63;100.00;97958.56;15270149;19;20025;-60
2022/10/21 18:22:07;;;;;;;1.88;1.08;;;;;;;13.59;100.00;97957.25;15260991;19;20014;-58
2022/10/21 18:27:31;;;;;;;0.83;0.80;;;;;;;13.56;100.00;97975.59;15272924;19;20014;-60
2022/10/21 18:32:52;;;;;;;1.27;0.80;;;;;;;13.54;100.00;97976.78;15268379;19;20247;-61
2022/10/21 18:38:17;;;;;;;0.95;0.70;;;;;;;13.53;100.00;97975.09;15265589;19;20015;-59
2022/10/21 18:43:42;;;;;;;0.85;0.80;;;;;;;13.56;100.00;97974.72;15266940;19;20029;-58
2022/10/21 18:49:10;;;;;;;1.38;0.80;;;;;;;13.51;100.00;97964.47;15271484;19;20024;-60
2022/10/21 18:54:34;;;;;;;0.95;0.90;;;;;;;13.47;100.00;97971.28;15269926;19;20014;-59
2022/10/21 18:59:59;;;;;;;1.30;0.82;;;;;;;13.46;100.00;97975.06;15262828;19;20011;-56
2022/10/21 19:05:26;;;;;;;1.40;0.90;;;;;;;13.43;100.00;97980.00;15268692;19;20011;-56
2022/10/21 19:10:51;;;;;;;1.10;1.00;;;;;;;13.39;100.00;97976.81;15263359;19;20046;-55
2022/10/21 19:16:16;;;;;;;1.15;1.10;;;;;;;13.37;100.00;97979.72;15266242;19;20025;-57
2022/10/21 19:21:43;;;;;;;2.50;1.20;;;;;;;13.35;100.00;97980.91;15271755;19;20018;-58
2022/10/21 19:27:07;;;;;;;2.50;1.13;;;;;;;13.35;100.00;97978.19;15282549;19;20018;-55
2022/10/21 19:32:32;;;;;;;1.25;1.15;;;;;;;13.36;100.00;97982.59;15280947;19;20038;-53
2022/10/21 19:37:59;;;;;;;1.95;1.20;;;;;;;13.37;100.00;97989.69;15283136;19;20015;-51
2022/10/21 19:43:31;;;;;;;1.20;0.80;;;;;;;13.37;100.00;97990.53;15280367;19;20412;-54
2022/10/21 19:48:56;;;;;;;1.42;0.90;;;;;;;13.40;100.00;98001.00;15282529;19;20070;-54
2022/10/21 19:54:23;;;;;;;2.92;1.02;;;;;;;13.42;100.00;97995.41;15274373;19;20085;-56
2022/10/21 19:59:49;;;;;;;4.00;1.00;;;;;;;13.42;100.00;97998.09;15277165;19;20021;-54
2022/10/21 20:05:21;;;;;;;1.25;0.73;;;;;;;13.44;100.00;97989.78;15278698;19;20015;-57
2022/10/21 20:10:59;;;;;;;1.40;1.10;;;;;;;13.40;100.00;97992.03;15276920;19;20018;-58
2022/10/21 20:16:26;;;;;;;1.33;0.80;;;;;;;13.35;100.00;97989.03;15272223;19;20480;-51
2022/10/21 20:21:57;;;;;;;2.38;0.82;;;;;;;13.26;100.00;97991.84;15276555;19;20011;-52
2022/10/21 20:27:24;;;;;;;1.40;1.00;;;;;;;13.16;100.00;97990.47;15276392;19;20380;-55
2022/10/21 20:32:51;;;;;;;2.10;0.90;;;;;;;13.06;100.00;97983.47;15275306;19;20029;-53
2022/10/21 20:38:16;;;;;;;1.88;0.88;;;;;;;13.06;100.00;97977.25;15279919;19;20363;-51
2022/10/21 20:43:44;;;;;;;2.80;0.90;;;;;;;13.09;100.00;97972.28;15272724;19;21114;-51
2022/10/21 20:49:10;;;;;;;1.55;0.82;;;;;;;13.12;100.00;97995.41;15277289;19;20022;-51
2022/10/21 20:54:34;;;;;;;1.58;0.98;;;;;;;13.15;100.00;98013.97;15276202;19;20011;-53
2022/10/21 21:00:01;;;;;;;2.35;0.95;;;;;;;13.16;100.00;98028.34;15274485;19;20022;-51
2022/10/21 21:05:25;;;;;;;2.25;0.90;;;;;;;13.14;100.00;98039.34;15276346;19;20379;-52
2022/10/21 21:10:55;;;;;;;2.55;0.98;;;;;;;13.20;100.00;98046.72;15272973;19;20489;-53
2022/10/21 21:16:24;;;;;;;1.25;0.90;;;;;;;13.27;100.00;98060.34;15270660;19;20067;-55
2022/10/21 21:21:56;;;;;;;1.60;0.90;;;;;;;13.35;100.00;98033.16;15273621;19;20011;-54
2022/10/21 21:27:21;;;;;;;1.98;1.05;;;;;;;13.39;100.00;98026.38;15274912;19;20015;-54
2022/10/21 21:32:49;;;;;;;1.75;0.90;;;;;;;13.43;100.00;98005.19;15275964;19;20025;-55
2022/10/21 21:38:15;;;;;;;2.63;1.00;;;;;;;13.43;100.00;97991.66;15273497;19;20037;-52
2022/10/21 21:43:42;;;;;;;2.15;1.00;;;;;;;13.43;100.00;97997.09;15273347;19;20025;-54
2022/10/21 21:49:09;;;;;;;1.98;1.10;;;;;;;13.44;100.00;98006.88;15271652;19;20409;-55
2022/10/21 21:54:33;;;;;;;1.52;0.80;;;;;;;13.44;100.00;98030.38;15273665;19;20029;-54
2022/10/21 21:59:58;;;;;;;1.67;1.00;;;;;;;13.45;100.00;98037.47;15275520;19;20049;-55
2022/10/21 22:05:25;;;;;;;1.75;1.10;;;;;;;13.50;100.00;98025.03;15275728;19;20078;-54
2022/10/21 22:10:51;;;;;;;2.08;1.10;;;;;;;13.52;100.00;98001.34;15272415;19;20026;-56
2022/10/21 22:16:18;;;;;;;1.75;1.10;;;;;;;13.53;100.00;97992.19;15273381;19;20037;-55
2022/10/21 22:21:46;;;;;;;1.25;0.90;;;;;;;13.52;100.00;97968.88;15267156;19;20036;-55
2022/10/21 22:27:11;;;;;;;1.77;0.90;;;;;;;13.53;100.00;97948.91;15276449;19;20026;-53
2022/10/21 22:32:36;;;;;;;2.35;1.10;;;;;;;13.49;100.00;97961.13;15272853;19;20018;-54
2022/10/21 22:38:03;;;;;;;2.45;1.23;;;;;;;13.46;100.00;97960.69;15273146;19;20025;-54
2022/10/21 22:43:29;;;;;;;2.60;1.00;;;;;;;13.53;100.00;97967.84;15272459;19;20027;-54
2022/10/21 22:48:53;;;;;;;1.98;1.20;;;;;;;13.56;100.00;97972.03;15274652;19;20042;-55
2022/10/21 22:54:20;;;;;;;3.15;1.20;;;;;;;13.56;100.00;97974.72;15272485;19;20022;-54
2022/10/21 23:00:05;;;;;;;1.85;1.20;;;;;;;13.61;100.00;98001.22;15278868;19;20018;-55
2022/10/21 23:05:30;;;;;;;1.95;1.10;;;;;;;13.62;100.00;97994.78;15280981;19;20078;-56
2022/10/21 23:10:58;;;;;;;1.55;1.20;;;;;;;13.62;100.00;97998.34;15281867;19;21105;-53
2022/10/21 23:16:23;;;;;;;1.50;1.10;;;;;;;13.63;100.00;97967.53;15278744;19;20010;-57
2022/10/21 23:21:47;;;;;;;1.85;1.13;;;;;;;13.63;100.00;97991.03;15278344;19;20350;-56
2022/10/21 23:27:14;;;;;;;2.05;1.15;;;;;;;13.62;100.00;97984.81;15278480;19;20018;-57
2022/10/21 23:32:39;;;;;;;1.58;1.10;;;;;;;13.60;100.00;97970.63;15282255;19;20014;-53
2022/10/21 23:38:04;;;;;;;4.07;1.20;;;;;;;13.59;100.00;97989.75;15284491;19;20019;-55
2022/10/21 23:43:31;;;;;;;2.17;1.23;;;;;;;13.55;100.00;97975.75;15285641;19;20018;-56
2022/10/21 23:48:56;;;;;;;2.47;1.20;;;;;;;13.54;100.00;97958.69;15283764;19;20021;-53
2022/10/21 23:54:20;;;;;;;2.15;1.10;;;;;;;13.51;100.00;97960.94;15276978;19;20014;-56
2022/10/21 23:59:47;;;;;;;1.45;1.23;;;;;;;13.49;100.00;97966.53;15276194;19;20052;-55
